sensor_id;sensor_type;location;lat;lon;timestamp;pressure;altitude;pressure_sealevel;temperature;humidity
25944;BME280;13742;49.306;8.636;2022-10-14T00:00:03;100674.80;;;14.69;100.00
25944;BME280;13742;49.306;8.636;2022-10-14T00:01:05;100673.75;;;14.70;100.00
25944;BME280;13742;49.306;8.636;2022-10-14T00:02:02;100674.47;;;14.69;100.00
25944;BME280;13742;49.306;8.636;2022-10-14T00:03:02;100672.74;;;14.68;100.00
25944;BME280;13742;49.306;8.636;2022-10-14T00:04:02;100678.98;;;14.67;100.00
25944;BME280;13742;49.306;8.636;2022-10-14T00:05:02;100681.25;;;14.66;100.00
25944;BME280;13742;49.306;8.636;2022-10-14T00:06:03;100682.63;;;14.66;100.00
25944;BME280;13742;49.306;8.636;2022-10-14T00:07:02;100683.05;;;14.65;100.00
25944;BME280;13742;49.306;8.636;2022-10-14T00:08:02;100680.82;;;14.64;100.00
25944;BME280;13742;49.306;8.636;2022-10-14T00:09:06;100676.00;;;14.64;100.00
25944;BME280;13742;49.306;8.636;2022-10-14T00:10:03;100678.66;;;14.64;100.00
25944;BME280;13742;49.306;8.636;2022-10-14T00:11:03;100675.20;;;14.62;100.00
25944;BME280;13742;49.306;8.636;2022-10-14T00:12:03;100675.11;;;14.63;100.00
25944;BME280;13742;49.306;8.636;2022-10-14T00:13:02;100676.20;;;14.62;100.00
25944;BME280;13742;49.306;8.636;2022-10-14T00:14:04;100679.93;;;14.63;100.00
25944;BME280;13742;49.306;8.636;2022-10-14T00:15:02;100675.05;;;14.62;100.00
25944;BME280;13742;49.306;8.636;2022-10-14T00:16:02;100671.48;;;14.61;100.00
25944;BME280;13742;49.306;8.636;2022-10-14T00:17:02;100673.69;;;14.60;100.00
25944;BME280;13742;49.306;8.636;2022-10-14T00:18:02;100671.02;;;14.59;100.00
25944;BME280;13742;49.306;8.636;2022-10-14T00:19:02;100670.44;;;14.58;100.00
25944;BME280;13742;49.306;8.636;2022-10-14T00:20:02;100670.27;;;14.57;100.00
25944;BME280;13742;49.306;8.636;2022-10-14T00:21:02;100669.42;;;14.57;100.00
25944;BME280;13742;49.306;8.636;2022-10-14T00:22:02;100670.76;;;14.56;100.00
25944;BME280;13742;49.306;8.636;2022-10-14T00:23:02;100670.36;;;14.55;100.00
25944;BME280;13742;49.306;8.636;2022-10-14T00:24:02;100669.28;;;14.55;100.00
25944;BME280;13742;49.306;8.636;2022-10-14T00:25:02;100671.66;;;14.53;100.00
25944;BME280;13742;49.306;8.636;2022-10-14T00:26:02;100674.86;;;14.53;100.00
25944;BME280;13742;49.306;8.636;2022-10-14T00:27:02;100676.06;;;14.52;100.00
25944;BME280;13742;49.306;8.636;2022-10-14T00:28:02;100677.88;;;14.51;100.00
25944;BME280;13742;49.306;8.636;2022-10-14T00:29:03;100678.56;;;14.51;100.00
25944;BME280;13742;49.306;8.636;2022-10-14T00:30:02;100681.32;;;14.50;100.00
25944;BME280;13742;49.306;8.636;2022-10-14T00:31:02;100680.58;;;14.50;100.00
25944;BME280;13742;49.306;8.636;2022-10-14T00:32:02;100677.31;;;14.50;100.00
25944;BME280;13742;49.306;8.636;2022-10-14T00:33:02;100681.03;;;14.51;100.00
25944;BME280;13742;49.306;8.636;2022-10-14T00:34:02;100682.41;;;14.50;100.00
25944;BME280;13742;49.306;8.636;2022-10-14T00:35:02;100677.98;;;14.50;100.00
25944;BME280;13742;49.306;8.636;2022-10-14T00:36:03;100680.82;;;14.50;100.00
25944;BME280;13742;49.306;8.636;2022-10-14T00:37:02;100684.80;;;14.50;100.00
25944;BME280;13742;49.306;8.636;2022-10-14T00:38:02;100682.73;;;14.49;100.00
25944;BME280;13742;49.306;8.636;2022-10-14T00:39:02;100680.79;;;14.48;100.00
25944;BME280;13742;49.306;8.636;2022-10-14T00:40:04;100683.60;;;14.48;100.00
25944;BME280;13742;49.306;8.636;2022-10-14T00:41:02;100680.23;;;14.47;100.00
25944;BME280;13742;49.306;8.636;2022-10-14T00:42:02;100683.97;;;14.47;100.00
25944;BME280;13742;49.306;8.636;2022-10-14T00:43:02;100684.47;;;14.47;100.00
25944;BME280;13742;49.306;8.636;2022-10-14T00:44:06;100681.27;;;14.47;100.00
25944;BME280;13742;49.306;8.636;2022-10-14T00:45:04;100681.70;;;14.47;100.00
25944;BME280;13742;49.306;8.636;2022-10-14T00:46:02;100674.94;;;14.46;100.00
25944;BME280;13742;49.306;8.636;2022-10-14T00:47:02;100678.64;;;14.46;100.00
25944;BME280;13742;49.306;8.636;2022-10-14T00:48:02;100670.78;;;14.45;100.00
25944;BME280;13742;49.306;8.636;2022-10-14T00:49:04;100676.45;;;14.47;100.00
25944;BME280;13742;49.306;8.636;2022-10-14T00:50:02;100677.81;;;14.46;100.00
25944;BME280;13742;49.306;8.636;2022-10-14T00:51:02;100673.74;;;14.47;100.00
25944;BME280;13742;49.306;8.636;2022-10-14T00:52:03;100675.17;;;14.46;100.00
25944;BME280;13742;49.306;8.636;2022-10-14T00:53:02;100673.67;;;14.46;100.00
25944;BME280;13742;49.306;8.636;2022-10-14T00:54:02;100677.00;;;14.46;100.00
25944;BME280;13742;49.306;8.636;2022-10-14T00:55:03;100673.11;;;14.45;100.00
25944;BME280;13742;49.306;8.636;2022-10-14T00:56:02;100676.76;;;14.46;100.00
25944;BME280;13742;49.306;8.636;2022-10-14T00:57:02;100673.49;;;14.46;100.00
25944;BME280;13742;49.306;8.636;2022-10-14T00:58:02;100678.25;;;14.46;100.00
25944;BME280;13742;49.306;8.636;2022-10-14T00:59:02;100677.61;;;14.47;100.00
25944;BME280;13742;49.306;8.636;2022-10-14T01:00:06;100673.95;;;14.47;100.00
25944;BME280;13742;49.306;8.636;2022-10-14T01:01:02;100676.50;;;14.46;100.00
25944;BME280;13742;49.306;8.636;2022-10-14T01:02:02;100671.19;;;14.46;100.00
25944;BME280;13742;49.306;8.636;2022-10-14T01:03:06;100670.35;;;14.46;100.00
25944;BME280;13742;49.306;8.636;2022-10-14T01:04:02;100672.22;;;14.46;100.00
25944;BME280;13742;49.306;8.636;2022-10-14T01:05:03;100671.00;;;14.46;100.00
25944;BME280;13742;49.306;8.636;2022-10-14T01:06:08;100673.88;;;14.46;100.00
25944;BME280;13742;49.306;8.636;2022-10-14T01:08:07;100672.71;;;14.44;100.00
25944;BME280;13742;49.306;8.636;2022-10-14T01:09:24;100674.63;;;14.44;100.00
25944;BME280;13742;49.306;8.636;2022-10-14T01:23:07;100666.02;;;14.42;100.00
25944;BME280;13742;49.306;8.636;2022-10-14T01:28:06;100667.39;;;14.41;100.00
25944;BME280;13742;49.306;8.636;2022-10-14T01:30:04;100667.98;;;14.40;100.00
25944;BME280;13742;49.306;8.636;2022-10-14T01:31:06;100663.39;;;14.40;100.00
25944;BME280;13742;49.306;8.636;2022-10-14T01:32:03;100660.40;;;14.40;100.00
25944;BME280;13742;49.306;8.636;2022-10-14T01:34:04;100658.78;;;14.39;100.00
25944;BME280;13742;49.306;8.636;2022-10-14T01:37:03;100656.25;;;14.40;100.00
25944;BME280;13742;49.306;8.636;2022-10-14T01:38:23;100654.36;;;14.40;100.00
25944;BME280;13742;49.306;8.636;2022-10-14T01:40:04;100655.81;;;14.40;100.00
25944;BME280;13742;49.306;8.636;2022-10-14T01:41:03;100655.52;;;14.39;100.00
25944;BME280;13742;49.306;8.636;2022-10-14T01:42:07;100657.23;;;14.39;100.00
25944;BME280;13742;49.306;8.636;2022-10-14T01:43:02;100657.34;;;14.39;100.00
25944;BME280;13742;49.306;8.636;2022-10-14T01:44:03;100653.45;;;14.38;100.00
25944;BME280;13742;49.306;8.636;2022-10-14T01:45:05;100656.72;;;14.38;100.00
25944;BME280;13742;49.306;8.636;2022-10-14T01:46:02;100650.85;;;14.38;100.00
25944;BME280;13742;49.306;8.636;2022-10-14T01:47:02;100656.61;;;14.38;100.00
25944;BME280;13742;49.306;8.636;2022-10-14T01:48:02;100650.39;;;14.37;100.00
25944;BME280;13742;49.306;8.636;2022-10-14T01:49:03;100655.09;;;14.36;100.00
25944;BME280;13742;49.306;8.636;2022-10-14T01:50:03;100652.92;;;14.36;100.00
25944;BME280;13742;49.306;8.636;2022-10-14T01:51:03;100649.18;;;14.37;100.00
25944;BME280;13742;49.306;8.636;2022-10-14T01:52:06;100651.59;;;14.36;100.00
25944;BME280;13742;49.306;8.636;2022-10-14T01:53:03;100652.53;;;14.35;100.00
25944;BME280;13742;49.306;8.636;2022-10-14T01:54:06;100653.80;;;14.35;100.00
25944;BME280;13742;49.306;8.636;2022-10-14T01:55:03;100647.31;;;14.34;100.00
25944;BME280;13742;49.306;8.636;2022-10-14T01:56:02;100649.42;;;14.35;100.00
25944;BME280;13742;49.306;8.636;2022-10-14T01:57:02;100647.98;;;14.34;100.00
25944;BME280;13742;49.306;8.636;2022-10-14T01:58:02;100649.16;;;14.35;100.00
25944;BME280;13742;49.306;8.636;2022-10-14T01:59:02;100647.16;;;14.35;100.00
25944;BME280;13742;49.306;8.636;2022-10-14T02:00:02;100650.37;;;14.35;100.00
25944;BME280;13742;49.306;8.636;2022-10-14T02:01:05;100645.22;;;14.35;100.00
25944;BME280;13742;49.306;8.636;2022-10-14T02:02:02;100648.43;;;14.35;100.00
25944;BME280;13742;49.306;8.636;2022-10-14T02:03:02;100648.78;;;14.36;100.00
25944;BME280;13742;49.306;8.636;2022-10-14T02:04:02;100651.05;;;14.36;100.00
25944;BME280;13742;49.306;8.636;2022-10-14T02:05:05;100646.17;;;14.36;100.00
25944;BME280;13742;49.306;8.636;2022-10-14T02:06:03;100648.33;;;14.36;100.00
25944;BME280;13742;49.306;8.636;2022-10-14T02:07:04;100648.38;;;14.35;100.00
25944;BME280;13742;49.306;8.636;2022-10-14T02:10:05;100642.34;;;14.35;100.00
25944;BME280;13742;49.306;8.636;2022-10-14T02:11:06;100641.34;;;14.35;100.00
25944;BME280;13742;49.306;8.636;2022-10-14T02:15:08;100637.63;;;14.35;100.00
25944;BME280;13742;49.306;8.636;2022-10-14T02:16:05;100632.61;;;14.36;100.00
25944;BME280;13742;49.306;8.636;2022-10-14T02:17:07;100633.42;;;14.35;100.00
25944;BME280;13742;49.306;8.636;2022-10-14T02:20:12;100626.30;;;14.36;100.00
25944;BME280;13742;49.306;8.636;2022-10-14T02:21:07;100623.64;;;14.36;100.00
25944;BME280;13742;49.306;8.636;2022-10-14T02:23:25;100620.77;;;14.37;100.00
25944;BME280;13742;49.306;8.636;2022-10-14T02:25:05;100618.55;;;14.36;100.00
25944;BME280;13742;49.306;8.636;2022-10-14T02:26:02;100615.76;;;14.35;100.00
25944;BME280;13742;49.306;8.636;2022-10-14T02:27:03;100616.72;;;14.36;100.00
25944;BME280;13742;49.306;8.636;2022-10-14T02:28:02;100617.09;;;14.35;100.00
25944;BME280;13742;49.306;8.636;2022-10-14T02:29:02;100611.67;;;14.35;100.00
25944;BME280;13742;49.306;8.636;2022-10-14T02:30:04;100613.39;;;14.36;100.00
25944;BME280;13742;49.306;8.636;2022-10-14T02:31:06;100608.07;;;14.36;100.00
25944;BME280;13742;49.306;8.636;2022-10-14T02:32:02;100608.25;;;14.36;100.00
25944;BME280;13742;49.306;8.636;2022-10-14T02:33:02;100605.41;;;14.36;100.00
25944;BME280;13742;49.306;8.636;2022-10-14T02:34:02;100603.70;;;14.36;100.00
25944;BME280;13742;49.306;8.636;2022-10-14T02:35:02;100604.91;;;14.36;100.00
25944;BME280;13742;49.306;8.636;2022-10-14T02:36:02;100602.77;;;14.37;100.00
25944;BME280;13742;49.306;8.636;2022-10-14T02:37:02;100597.34;;;14.37;100.00
25944;BME280;13742;49.306;8.636;2022-10-14T02:38:02;100601.66;;;14.37;100.00
25944;BME280;13742;49.306;8.636;2022-10-14T02:39:02;100598.23;;;14.37;100.00
25944;BME280;13742;49.306;8.636;2022-10-14T02:41:03;100596.44;;;14.36;100.00
25944;BME280;13742;49.306;8.636;2022-10-14T02:42:02;100594.03;;;14.37;100.00
25944;BME280;13742;49.306;8.636;2022-10-14T02:43:02;100593.36;;;14.37;100.00
25944;BME280;13742;49.306;8.636;2022-10-14T02:44:03;100590.13;;;14.36;100.00
25944;BME280;13742;49.306;8.636;2022-10-14T02:45:02;100591.63;;;14.36;100.00
25944;BME280;13742;49.306;8.636;2022-10-14T02:46:02;100587.48;;;14.36;100.00
25944;BME280;13742;49.306;8.636;2022-10-14T02:47:02;100588.14;;;14.36;100.00
25944;BME280;13742;49.306;8.636;2022-10-14T02:48:02;100587.81;;;14.36;100.00
25944;BME280;13742;49.306;8.636;2022-10-14T02:49:02;100583.25;;;14.35;100.00
25944;BME280;13742;49.306;8.636;2022-10-14T02:50:02;100584.15;;;14.36;100.00
25944;BME280;13742;49.306;8.636;2022-10-14T02:51:02;100583.77;;;14.36;100.00
25944;BME280;13742;49.306;8.636;2022-10-14T02:52:02;100583.10;;;14.36;100.00
25944;BME280;13742;49.306;8.636;2022-10-14T02:53:02;100578.17;;;14.36;100.00
25944;BME280;13742;49.306;8.636;2022-10-14T02:54:02;100580.00;;;14.36;100.00
25944;BME280;13742;49.306;8.636;2022-10-14T02:55:02;100579.33;;;14.35;100.00
25944;BME280;13742;49.306;8.636;2022-10-14T02:56:02;100577.16;;;14.34;100.00
25944;BME280;13742;49.306;8.636;2022-10-14T02:57:02;100573.79;;;14.35;100.00
25944;BME280;13742;49.306;8.636;2022-10-14T02:58:02;100575.61;;;14.35;100.00
25944;BME280;13742;49.306;8.636;2022-10-14T02:59:02;100576.68;;;14.36;100.00
25944;BME280;13742;49.306;8.636;2022-10-14T03:00:03;100577.00;;;14.36;100.00
25944;BME280;13742;49.306;8.636;2022-10-14T03:01:02;100579.02;;;14.37;100.00
25944;BME280;13742;49.306;8.636;2022-10-14T03:02:02;100576.73;;;14.36;100.00
25944;BME280;13742;49.306;8.636;2022-10-14T03:03:02;100573.19;;;14.36;100.00
25944;BME280;13742;49.306;8.636;2022-10-14T03:04:02;100574.42;;;14.37;100.00
25944;BME280;13742;49.306;8.636;2022-10-14T03:05:02;100572.92;;;14.37;100.00
25944;BME280;13742;49.306;8.636;2022-10-14T03:06:02;100571.93;;;14.37;100.00
25944;BME280;13742;49.306;8.636;2022-10-14T03:07:02;100571.43;;;14.37;100.00
25944;BME280;13742;49.306;8.636;2022-10-14T03:08:02;100570.25;;;14.36;100.00
25944;BME280;13742;49.306;8.636;2022-10-14T03:09:02;100564.23;;;14.37;100.00
25944;BME280;13742;49.306;8.636;2022-10-14T03:10:02;100565.19;;;14.38;100.00
25944;BME280;13742;49.306;8.636;2022-10-14T03:11:02;100567.45;;;14.38;100.00
25944;BME280;13742;49.306;8.636;2022-10-14T03:12:02;100565.46;;;14.38;100.00
25944;BME280;13742;49.306;8.636;2022-10-14T03:13:03;100563.51;;;14.37;100.00
25944;BME280;13742;49.306;8.636;2022-10-14T03:14:02;100561.47;;;14.37;100.00
25944;BME280;13742;49.306;8.636;2022-10-14T03:15:02;100555.73;;;14.35;100.00
25944;BME280;13742;49.306;8.636;2022-10-14T03:16:02;100558.95;;;14.36;100.00
25944;BME280;13742;49.306;8.636;2022-10-14T03:17:02;100559.18;;;14.36;100.00
25944;BME280;13742;49.306;8.636;2022-10-14T03:18:02;100556.73;;;14.35;100.00
25944;BME280;13742;49.306;8.636;2022-10-14T03:19:02;100557.94;;;14.34;100.00
25944;BME280;13742;49.306;8.636;2022-10-14T03:20:03;100554.52;;;14.35;100.00
25944;BME280;13742;49.306;8.636;2022-10-14T03:21:02;100550.86;;;14.35;100.00
25944;BME280;13742;49.306;8.636;2022-10-14T03:22:02;100551.80;;;14.35;100.00
25944;BME280;13742;49.306;8.636;2022-10-14T03:23:02;100548.75;;;14.35;100.00
25944;BME280;13742;49.306;8.636;2022-10-14T03:24:02;100548.05;;;14.36;100.00
25944;BME280;13742;49.306;8.636;2022-10-14T03:25:02;100548.75;;;14.35;100.00
25944;BME280;13742;49.306;8.636;2022-10-14T03:26:02;100546.77;;;14.35;100.00
25944;BME280;13742;49.306;8.636;2022-10-14T03:27:02;100545.37;;;14.34;100.00
25944;BME280;13742;49.306;8.636;2022-10-14T03:28:02;100547.63;;;14.34;100.00
25944;BME280;13742;49.306;8.636;2022-10-14T03:29:02;100544.98;;;14.34;100.00
25944;BME280;13742;49.306;8.636;2022-10-14T03:30:02;100544.85;;;14.34;100.00
25944;BME280;13742;49.306;8.636;2022-10-14T03:31:02;100545.02;;;14.34;100.00
25944;BME280;13742;49.306;8.636;2022-10-14T03:32:02;100543.52;;;14.34;100.00
25944;BME280;13742;49.306;8.636;2022-10-14T03:33:02;100542.09;;;14.33;100.00
25944;BME280;13742;49.306;8.636;2022-10-14T03:34:02;100541.30;;;14.32;100.00
25944;BME280;13742;49.306;8.636;2022-10-14T03:35:02;100543.56;;;14.32;100.00
25944;BME280;13742;49.306;8.636;2022-10-14T03:36:02;100543.63;;;14.32;100.00
25944;BME280;13742;49.306;8.636;2022-10-14T03:37:02;100542.28;;;14.31;100.00
25944;BME280;13742;49.306;8.636;2022-10-14T03:38:02;100542.07;;;14.31;100.00
25944;BME280;13742;49.306;8.636;2022-10-14T03:39:02;100541.16;;;14.31;100.00
25944;BME280;13742;49.306;8.636;2022-10-14T03:40:02;100540.00;;;14.31;100.00
25944;BME280;13742;49.306;8.636;2022-10-14T03:41:02;100540.52;;;14.31;100.00
25944;BME280;13742;49.306;8.636;2022-10-14T03:42:02;100535.80;;;14.30;100.00
25944;BME280;13742;49.306;8.636;2022-10-14T03:43:02;100535.78;;;14.30;100.00
25944;BME280;13742;49.306;8.636;2022-10-14T03:44:02;100536.84;;;14.29;100.00
25944;BME280;13742;49.306;8.636;2022-10-14T03:45:02;100538.11;;;14.29;100.00
25944;BME280;13742;49.306;8.636;2022-10-14T03:46:02;100537.49;;;14.28;100.00
25944;BME280;13742;49.306;8.636;2022-10-14T03:47:02;100534.27;;;14.27;100.00
25944;BME280;13742;49.306;8.636;2022-10-14T03:48:02;100534.31;;;14.26;100.00
25944;BME280;13742;49.306;8.636;2022-10-14T03:49:02;100531.21;;;14.26;100.00
25944;BME280;13742;49.306;8.636;2022-10-14T03:50:04;100533.82;;;14.28;100.00
25944;BME280;13742;49.306;8.636;2022-10-14T03:51:02;100529.00;;;14.26;100.00
25944;BME280;13742;49.306;8.636;2022-10-14T03:52:02;100525.17;;;14.25;100.00
25944;BME280;13742;49.306;8.636;2022-10-14T03:53:02;100524.91;;;14.26;100.00
25944;BME280;13742;49.306;8.636;2022-10-14T03:54:02;100520.97;;;14.26;100.00
25944;BME280;13742;49.306;8.636;2022-10-14T03:55:02;100521.89;;;14.26;100.00
25944;BME280;13742;49.306;8.636;2022-10-14T03:56:02;100522.02;;;14.25;100.00
25944;BME280;13742;49.306;8.636;2022-10-14T03:57:02;100526.39;;;14.26;100.00
25944;BME280;13742;49.306;8.636;2022-10-14T03:58:02;100525.90;;;14.26;100.00
25944;BME280;13742;49.306;8.636;2022-10-14T03:59:02;100527.61;;;14.27;100.00
25944;BME280;13742;49.306;8.636;2022-10-14T04:00:02;100522.49;;;14.25;100.00
25944;BME280;13742;49.306;8.636;2022-10-14T04:01:02;100524.89;;;14.26;100.00
25944;BME280;13742;49.306;8.636;2022-10-14T04:02:02;100523.73;;;14.26;100.00
25944;BME280;13742;49.306;8.636;2022-10-14T04:03:02;100523.20;;;14.27;100.00
25944;BME280;13742;49.306;8.636;2022-10-14T04:04:02;100521.25;;;14.26;100.00
25944;BME280;13742;49.306;8.636;2022-10-14T04:05:02;100521.86;;;14.26;100.00
25944;BME280;13742;49.306;8.636;2022-10-14T04:06:02;100522.08;;;14.26;100.00
25944;BME280;13742;49.306;8.636;2022-10-14T04:07:02;100523.20;;;14.27;100.00
25944;BME280;13742;49.306;8.636;2022-10-14T04:08:02;100520.02;;;14.26;100.00
25944;BME280;13742;49.306;8.636;2022-10-14T04:09:02;100519.14;;;14.27;100.00
25944;BME280;13742;49.306;8.636;2022-10-14T04:10:02;100520.30;;;14.27;100.00
25944;BME280;13742;49.306;8.636;2022-10-14T04:11:02;100520.92;;;14.27;100.00
25944;BME280;13742;49.306;8.636;2022-10-14T04:12:02;100521.86;;;14.28;100.00
25944;BME280;13742;49.306;8.636;2022-10-14T04:13:02;100519.86;;;14.26;100.00
25944;BME280;13742;49.306;8.636;2022-10-14T04:14:02;100522.59;;;14.27;100.00
25944;BME280;13742;49.306;8.636;2022-10-14T04:15:02;100520.65;;;14.27;100.00
25944;BME280;13742;49.306;8.636;2022-10-14T04:16:05;100520.26;;;14.27;100.00
25944;BME280;13742;49.306;8.636;2022-10-14T04:17:02;100522.31;;;14.27;100.00
25944;BME280;13742;49.306;8.636;2022-10-14T04:18:02;100520.26;;;14.27;100.00
25944;BME280;13742;49.306;8.636;2022-10-14T04:19:02;100521.70;;;14.28;100.00
25944;BME280;13742;49.306;8.636;2022-10-14T04:20:02;100521.77;;;14.29;100.00
25944;BME280;13742;49.306;8.636;2022-10-14T04:21:03;100517.78;;;14.28;100.00
25944;BME280;13742;49.306;8.636;2022-10-14T04:22:02;100517.10;;;14.27;100.00
25944;BME280;13742;49.306;8.636;2022-10-14T04:23:02;100512.69;;;14.28;100.00
25944;BME280;13742;49.306;8.636;2022-10-14T04:24:02;100512.97;;;14.28;100.00
25944;BME280;13742;49.306;8.636;2022-10-14T04:25:02;100510.23;;;14.28;100.00
25944;BME280;13742;49.306;8.636;2022-10-14T04:26:02;100511.19;;;14.28;100.00
25944;BME280;13742;49.306;8.636;2022-10-14T04:27:02;100510.88;;;14.29;100.00
25944;BME280;13742;49.306;8.636;2022-10-14T04:28:02;100509.80;;;14.29;100.00
25944;BME280;13742;49.306;8.636;2022-10-14T04:29:02;100508.63;;;14.27;100.00
25944;BME280;13742;49.306;8.636;2022-10-14T04:30:02;100507.98;;;14.28;100.00
25944;BME280;13742;49.306;8.636;2022-10-14T04:31:02;100508.86;;;14.27;100.00
25944;BME280;13742;49.306;8.636;2022-10-14T04:32:02;100507.11;;;14.26;100.00
25944;BME280;13742;49.306;8.636;2022-10-14T04:33:02;100507.45;;;14.26;100.00
25944;BME280;13742;49.306;8.636;2022-10-14T04:34:02;100509.16;;;14.24;100.00
25944;BME280;13742;49.306;8.636;2022-10-14T04:35:02;100511.09;;;14.24;100.00
25944;BME280;13742;49.306;8.636;2022-10-14T04:36:02;100507.86;;;14.23;100.00
25944;BME280;13742;49.306;8.636;2022-10-14T04:37:02;100507.95;;;14.22;100.00
25944;BME280;13742;49.306;8.636;2022-10-14T04:38:02;100507.78;;;14.21;100.00
25944;BME280;13742;49.306;8.636;2022-10-14T04:39:02;100504.89;;;14.20;100.00
25944;BME280;13742;49.306;8.636;2022-10-14T04:40:02;100504.89;;;14.20;100.00
25944;BME280;13742;49.306;8.636;2022-10-14T04:41:02;100505.98;;;14.19;100.00
25944;BME280;13742;49.306;8.636;2022-10-14T04:42:02;100499.92;;;14.16;100.00
25944;BME280;13742;49.306;8.636;2022-10-14T04:43:02;100504.59;;;14.18;100.00
25944;BME280;13742;49.306;8.636;2022-10-14T04:44:02;100499.26;;;14.17;100.00
25944;BME280;13742;49.306;8.636;2022-10-14T04:45:02;100497.53;;;14.16;100.00
25944;BME280;13742;49.306;8.636;2022-10-14T04:46:02;100496.09;;;14.16;100.00
25944;BME280;13742;49.306;8.636;2022-10-14T04:47:02;100493.94;;;14.16;100.00
25944;BME280;13742;49.306;8.636;2022-10-14T04:48:02;100494.22;;;14.15;100.00
25944;BME280;13742;49.306;8.636;2022-10-14T04:49:02;100494.49;;;14.16;100.00
25944;BME280;13742;49.306;8.636;2022-10-14T04:50:02;100492.98;;;14.15;100.00
25944;BME280;13742;49.306;8.636;2022-10-14T04:51:02;100490.44;;;14.15;100.00
25944;BME280;13742;49.306;8.636;2022-10-14T04:52:02;100492.98;;;14.15;100.00
25944;BME280;13742;49.306;8.636;2022-10-14T04:53:02;100488.49;;;14.14;100.00
25944;BME280;13742;49.306;8.636;2022-10-14T04:54:02;100487.00;;;14.14;100.00
25944;BME280;13742;49.306;8.636;2022-10-14T04:55:02;100487.50;;;14.14;100.00
25944;BME280;13742;49.306;8.636;2022-10-14T04:56:02;100485.38;;;14.13;100.00
25944;BME280;13742;49.306;8.636;2022-10-14T04:57:02;100483.88;;;14.13;100.00
25944;BME280;13742;49.306;8.636;2022-10-14T04:58:02;100483.55;;;14.13;100.00
25944;BME280;13742;49.306;8.636;2022-10-14T04:59:02;100482.58;;;14.13;100.00
25944;BME280;13742;49.306;8.636;2022-10-14T05:00:02;100480.75;;;14.13;100.00
25944;BME280;13742;49.306;8.636;2022-10-14T05:01:02;100480.56;;;14.13;100.00
25944;BME280;13742;49.306;8.636;2022-10-14T05:02:02;100475.60;;;14.13;100.00
25944;BME280;13742;49.306;8.636;2022-10-14T05:03:02;100473.89;;;14.12;100.00
25944;BME280;13742;49.306;8.636;2022-10-14T05:04:02;100471.16;;;14.12;100.00
25944;BME280;13742;49.306;8.636;2022-10-14T05:05:02;100471.78;;;14.12;100.00
25944;BME280;13742;49.306;8.636;2022-10-14T05:06:02;100471.77;;;14.11;100.00
25944;BME280;13742;49.306;8.636;2022-10-14T05:07:02;100468.50;;;14.11;100.00
25944;BME280;13742;49.306;8.636;2022-10-14T05:08:02;100466.94;;;14.11;100.00
25944;BME280;13742;49.306;8.636;2022-10-14T05:09:02;100466.39;;;14.11;100.00
25944;BME280;13742;49.306;8.636;2022-10-14T05:10:03;100466.52;;;14.11;100.00
25944;BME280;13742;49.306;8.636;2022-10-14T05:11:02;100463.79;;;14.11;100.00
25944;BME280;13742;49.306;8.636;2022-10-14T05:12:02;100460.73;;;14.10;100.00
25944;BME280;13742;49.306;8.636;2022-10-14T05:13:02;100458.41;;;14.10;100.00
25944;BME280;13742;49.306;8.636;2022-10-14T05:14:01;100456.58;;;14.10;100.00
25944;BME280;13742;49.306;8.636;2022-10-14T05:15:02;100456.02;;;14.09;100.00
25944;BME280;13742;49.306;8.636;2022-10-14T05:16:02;100457.13;;;14.09;100.00
25944;BME280;13742;49.306;8.636;2022-10-14T05:17:02;100455.23;;;14.08;100.00
25944;BME280;13742;49.306;8.636;2022-10-14T05:18:01;100454.45;;;14.08;100.00
25944;BME280;13742;49.306;8.636;2022-10-14T05:19:02;100456.08;;;14.09;100.00
25944;BME280;13742;49.306;8.636;2022-10-14T05:20:02;100453.70;;;14.09;100.00
25944;BME280;13742;49.306;8.636;2022-10-14T05:21:02;100453.63;;;14.08;100.00
25944;BME280;13742;49.306;8.636;2022-10-14T05:22:01;100455.64;;;14.09;100.00
25944;BME280;13742;49.306;8.636;2022-10-14T05:23:02;100454.69;;;14.08;100.00
25944;BME280;13742;49.306;8.636;2022-10-14T05:24:02;100453.35;;;14.08;100.00
25944;BME280;13742;49.306;8.636;2022-10-14T05:25:02;100453.96;;;14.08;100.00
25944;BME280;13742;49.306;8.636;2022-10-14T05:26:01;100451.16;;;14.09;100.00
25944;BME280;13742;49.306;8.636;2022-10-14T05:27:02;100454.64;;;14.09;100.00
25944;BME280;13742;49.306;8.636;2022-10-14T05:28:02;100449.42;;;14.08;100.00
25944;BME280;13742;49.306;8.636;2022-10-14T05:29:02;100448.44;;;14.09;100.00
25944;BME280;13742;49.306;8.636;2022-10-14T05:30:02;100450.04;;;14.09;100.00
25944;BME280;13742;49.306;8.636;2022-10-14T05:31:02;100448.98;;;14.09;100.00
25944;BME280;13742;49.306;8.636;2022-10-14T05:32:02;100450.33;;;14.10;100.00
25944;BME280;13742;49.306;8.636;2022-10-14T05:33:01;100451.04;;;14.09;100.00
25944;BME280;13742;49.306;8.636;2022-10-14T05:34:02;100452.17;;;14.10;100.00
25944;BME280;13742;49.306;8.636;2022-10-14T05:35:02;100451.53;;;14.09;100.00
25944;BME280;13742;49.306;8.636;2022-10-14T05:36:02;100453.03;;;14.09;100.00
25944;BME280;13742;49.306;8.636;2022-10-14T05:37:02;100453.31;;;14.09;100.00
25944;BME280;13742;49.306;8.636;2022-10-14T05:38:02;100453.64;;;14.09;100.00
25944;BME280;13742;49.306;8.636;2022-10-14T05:39:02;100456.91;;;14.08;100.00
25944;BME280;13742;49.306;8.636;2022-10-14T05:40:02;100455.29;;;14.08;100.00
25944;BME280;13742;49.306;8.636;2022-10-14T05:41:02;100453.20;;;14.09;100.00
25944;BME280;13742;49.306;8.636;2022-10-14T05:42:02;100448.54;;;14.08;100.00